createdAt,value
2022-09-28T00:01:07.023Z,10.64
2022-09-28T00:03:33.617Z,10.63
2022-09-28T00:06:04.787Z,10.65
2022-09-28T00:08:31.444Z,10.66
2022-09-28T00:10:58.231Z,10.68
2022-09-28T00:13:24.657Z,10.70
2022-09-28T00:16:01.275Z,10.70
2022-09-28T00:18:28.385Z,10.71
2022-09-28T00:21:01.831Z,10.73
2022-09-28T00:23:28.235Z,10.74
2022-09-28T00:25:54.684Z,10.74
2022-09-28T00:28:21.033Z,10.71
2022-09-28T00:30:47.395Z,10.71
2022-09-28T00:33:13.756Z,10.71
2022-09-28T00:35:40.181Z,10.72
2022-09-28T00:38:09.230Z,10.70
2022-09-28T00:40:35.685Z,10.69
2022-09-28T00:43:16.423Z,10.68
2022-09-28T00:45:43.014Z,10.65
2022-09-28T00:48:09.375Z,10.62
2022-09-28T00:50:37.406Z,10.63
2022-09-28T00:53:03.854Z,10.65
2022-09-28T00:55:34.427Z,10.64
2022-09-28T00:58:03.132Z,10.61
2022-09-28T01:00:29.709Z,10.61
2022-09-28T01:02:56.246Z,10.61
2022-09-28T01:05:24.255Z,10.62
2022-09-28T01:07:50.806Z,10.61
2022-09-28T01:10:18.252Z,10.61
2022-09-28T01:12:44.722Z,10.61
2022-09-28T01:15:11.644Z,10.62
2022-09-28T01:17:48.834Z,10.60
2022-09-28T01:20:44.460Z,10.59
2022-09-28T01:23:15.270Z,10.61
2022-09-28T01:25:55.020Z,10.65
2022-09-28T01:28:25.652Z,10.66
2022-09-28T01:31:04.692Z,10.65
2022-09-28T01:33:43.299Z,10.63
2022-09-28T01:36:12.482Z,10.62
2022-09-28T01:38:46.477Z,10.62
2022-09-28T01:41:13.559Z,10.65
2022-09-28T01:43:42.707Z,10.65
2022-09-28T01:46:14.180Z,10.64
2022-09-28T01:48:50.082Z,10.62
2022-09-28T01:51:25.042Z,10.63
2022-09-28T01:53:53.249Z,10.65
2022-09-28T01:56:25.752Z,10.64
2022-09-28T01:58:59.726Z,10.63
2022-09-28T02:01:29.315Z,10.62
2022-09-28T02:04:12.083Z,10.62
2022-09-28T02:06:45.880Z,10.60
2022-09-28T02:09:16.869Z,10.57
2022-09-28T02:11:50.326Z,10.53
2022-09-28T02:14:19.615Z,10.52
2022-09-28T02:16:48.936Z,10.52
2022-09-28T02:19:26.152Z,10.49
2022-09-28T02:22:01.864Z,10.48
2022-09-28T02:24:35.248Z,10.48
2022-09-28T02:27:07.801Z,10.46
2022-09-28T02:29:34.371Z,10.47
2022-09-28T02:32:00.969Z,10.47
2022-09-28T02:34:28.021Z,10.45
2022-09-28T02:36:54.503Z,10.43
2022-09-28T02:39:20.908Z,10.41
2022-09-28T02:42:11.426Z,10.39
2022-09-28T02:44:38.115Z,10.38
2022-09-28T02:47:11.135Z,10.36
2022-09-28T02:49:48.152Z,10.38
2022-09-28T02:52:33.449Z,10.38
2022-09-28T02:55:14.856Z,10.37
2022-09-28T02:57:41.188Z,10.38
2022-09-28T03:00:21.688Z,10.38
2022-09-28T03:03:06.211Z,10.37
2022-09-28T03:05:41.508Z,10.38
2022-09-28T03:08:23.652Z,10.38
2022-09-28T03:11:02.310Z,10.36
2022-09-28T03:13:30.800Z,10.33
2022-09-28T03:16:13.930Z,10.32
2022-09-28T03:18:41.960Z,10.31
2022-09-28T03:21:09.337Z,10.28
2022-09-28T03:23:35.737Z,10.26
2022-09-28T03:26:02.418Z,10.22
2022-09-28T03:28:29.709Z,10.20
2022-09-28T03:30:57.910Z,10.19
2022-09-28T03:33:24.265Z,10.18
2022-09-28T03:35:50.875Z,10.17
2022-09-28T03:38:18.583Z,10.17
2022-09-28T03:40:56.506Z,10.18
2022-09-28T03:43:23.710Z,10.20
2022-09-28T03:45:55.433Z,10.18
2022-09-28T03:48:31.370Z,10.17
2022-09-28T03:51:00.337Z,10.14
2022-09-28T03:53:26.945Z,10.10
2022-09-28T03:55:53.663Z,10.09
2022-09-28T03:58:20.977Z,10.09
2022-09-28T04:03:38.244Z,10.06
2022-09-28T04:06:04.875Z,10.07
2022-09-28T04:08:31.278Z,10.06
2022-09-28T04:10:59.126Z,10.07
2022-09-28T04:13:25.952Z,10.07
2022-09-28T04:15:56.653Z,10.07
2022-09-28T04:18:23.663Z,10.07
2022-09-28T04:21:14.201Z,10.05
2022-09-28T04:24:10.451Z,10.03
2022-09-28T04:26:37.298Z,9.98
2022-09-28T04:29:19.702Z,9.96
2022-09-28T04:31:55.234Z,9.91
2022-09-28T04:34:36.478Z,9.85
2022-09-28T04:37:04.806Z,9.80
2022-09-28T04:39:31.231Z,9.75
2022-09-28T04:41:57.685Z,9.73
2022-09-28T04:44:24.111Z,9.70
2022-09-28T04:46:56.623Z,9.67
2022-09-28T04:49:43.279Z,9.63
2022-09-28T04:52:26.674Z,9.60
2022-09-28T04:54:53.057Z,9.57
2022-09-28T04:57:19.471Z,9.54
2022-09-28T04:59:45.889Z,9.52
2022-09-28T05:02:15.049Z,9.50
2022-09-28T05:05:14.104Z,9.47
2022-09-28T05:08:03.361Z,9.45
2022-09-28T05:10:29.828Z,9.42
2022-09-28T05:12:56.251Z,9.39
2022-09-28T05:15:22.631Z,9.39
2022-09-28T05:17:49.090Z,9.39
2022-09-28T05:20:44.545Z,9.40
2022-09-28T05:23:12.253Z,9.40
2022-09-28T05:25:40.179Z,9.41
2022-09-28T05:28:20.262Z,9.39
2022-09-28T05:31:06.630Z,9.37
2022-09-28T05:34:08.331Z,9.40
2022-09-28T05:36:35.668Z,9.48
2022-09-28T05:39:03.903Z,9.52
2022-09-28T05:41:30.685Z,9.56
2022-09-28T05:43:58.098Z,9.59
2022-09-28T05:46:24.621Z,9.59
2022-09-28T05:48:52.617Z,9.60
2022-09-28T05:51:19.339Z,9.61
2022-09-28T05:53:46.120Z,9.63
2022-09-28T05:56:13.038Z,9.64
2022-09-28T05:58:43.356Z,9.64
2022-09-28T06:01:10.807Z,9.61
2022-09-28T06:03:37.463Z,9.59
2022-09-28T06:06:04.296Z,9.57
2022-09-28T06:08:32.689Z,9.56
2022-09-28T06:11:18.674Z,9.55
2022-09-28T06:13:46.265Z,9.55
2022-09-28T06:16:16.768Z,9.54
2022-09-28T06:18:43.582Z,9.54
2022-09-28T06:21:28.410Z,9.57
2022-09-28T06:23:54.828Z,9.60
2022-09-28T06:26:21.394Z,9.66
2022-09-28T06:28:48.399Z,9.71
2022-09-28T06:31:16.003Z,9.75
2022-09-28T06:33:48.205Z,9.80
2022-09-28T06:36:14.970Z,9.84
2022-09-28T06:38:41.802Z,9.88
2022-09-28T06:41:08.590Z,9.92
2022-09-28T06:43:39.634Z,9.97
2022-09-28T06:46:12.789Z,10.02
2022-09-28T06:48:39.232Z,10.06
2022-09-28T06:51:08.321Z,10.11
2022-09-28T06:53:53.900Z,10.16
2022-09-28T06:56:37.108Z,10.22
2022-09-28T06:59:03.921Z,10.26
2022-09-28T07:01:30.753Z,10.32
2022-09-28T07:04:11.388Z,10.37
2022-09-28T07:07:00.441Z,10.44
2022-09-28T07:09:50.278Z,10.46
2022-09-28T07:12:36.249Z,10.51
2022-09-28T07:15:12.213Z,10.56
2022-09-28T07:17:54.456Z,10.64
2022-09-28T07:20:25.278Z,10.76
2022-09-28T07:22:55.616Z,10.86
2022-09-28T07:25:23.908Z,10.95
2022-09-28T07:28:07.284Z,10.92
2022-09-28T07:30:52.174Z,10.85
2022-09-28T07:33:38.613Z,10.90
2022-09-28T07:36:30.282Z,11.03
2022-09-28T07:38:57.886Z,11.07
2022-09-28T07:41:32.604Z,11.11
2022-09-28T07:44:07.741Z,11.27
2022-09-28T07:46:36.974Z,11.41
2022-09-28T07:49:22.453Z,11.55
2022-09-28T07:52:08.086Z,11.64
2022-09-28T07:54:47.070Z,11.70
2022-09-28T07:57:33.751Z,11.84
2022-09-28T08:00:21.188Z,11.96
2022-09-28T08:02:48.411Z,11.99
2022-09-28T08:05:22.001Z,12.07
2022-09-28T08:07:48.522Z,12.22
2022-09-28T08:10:17.018Z,12.30
2022-09-28T08:13:04.770Z,12.37
2022-09-28T08:15:52.740Z,12.46
2022-09-28T08:18:31.535Z,12.46
2022-09-28T08:21:16.498Z,12.44
2022-09-28T08:23:43.324Z,12.41
2022-09-28T08:26:15.192Z,12.43
2022-09-28T08:28:43.226Z,12.46
2022-09-28T08:31:29.572Z,12.49
2022-09-28T08:34:10.237Z,12.45
2022-09-28T08:37:04.308Z,12.37
2022-09-28T08:40:02.694Z,12.40
2022-09-28T08:42:57.777Z,12.42
2022-09-28T08:45:42.956Z,12.34
2022-09-28T08:49:01.144Z,12.20
2022-09-28T08:52:00.546Z,12.05
2022-09-28T08:54:43.952Z,12.03
2022-09-28T08:57:22.721Z,12.03
2022-09-28T08:59:53.579Z,12.08
2022-09-28T09:02:39.653Z,12.23
2022-09-28T09:05:19.981Z,12.48
2022-09-28T09:08:22.205Z,12.64
2022-09-28T09:10:53.826Z,12.92
2022-09-28T09:13:28.427Z,13.13
2022-09-28T09:15:55.135Z,13.25
2022-09-28T09:18:49.223Z,13.25
2022-09-28T09:21:41.778Z,13.11
2022-09-28T09:24:30.420Z,12.94
2022-09-28T09:27:05.342Z,12.75
2022-09-28T09:29:32.096Z,12.59
2022-09-28T09:32:04.062Z,12.50
2022-09-28T09:34:31.322Z,12.48
2022-09-28T09:37:21.376Z,12.42
2022-09-28T09:40:12.563Z,12.53
2022-09-28T09:43:27.932Z,12.67
2022-09-28T09:46:19.008Z,12.76
2022-09-28T09:48:58.988Z,12.85
2022-09-28T09:51:32.046Z,12.98
2022-09-28T09:54:21.931Z,13.10
2022-09-28T09:56:54.767Z,13.23
2022-09-28T09:59:42.953Z,13.37
2022-09-28T10:02:24.247Z,13.41
2022-09-28T10:05:11.664Z,13.28
2022-09-28T10:07:43.397Z,13.22
2022-09-28T10:10:22.846Z,13.35
2022-09-28T10:12:52.993Z,13.47
2022-09-28T10:15:27.207Z,13.58
2022-09-28T10:18:13.065Z,13.67
2022-09-28T10:20:57.867Z,13.80
2022-09-28T10:23:36.500Z,13.93
2022-09-28T10:26:10.124Z,13.99
2022-09-28T10:28:43.076Z,14.05
2022-09-28T10:31:29.055Z,14.18
2022-09-28T10:33:57.616Z,14.32
2022-09-28T10:36:26.198Z,14.42
2022-09-28T10:38:54.394Z,14.39
2022-09-28T10:41:32.082Z,14.38
2022-09-28T10:44:06.935Z,14.35
2022-09-28T10:47:01.291Z,14.33
2022-09-28T10:49:37.384Z,14.46
2022-09-28T10:52:08.561Z,14.75
2022-09-28T10:54:52.162Z,15.04
2022-09-28T10:57:33.652Z,15.30
2022-09-28T11:00:06.885Z,15.50
2022-09-28T11:02:40.348Z,15.50
2022-09-28T11:05:21.865Z,15.35
2022-09-28T11:07:49.284Z,15.17
2022-09-28T11:10:21.607Z,15.03
2022-09-28T11:12:49.559Z,15.00
2022-09-28T11:15:21.276Z,15.11
2022-09-28T11:17:49.868Z,15.15
2022-09-28T11:20:27.876Z,15.16
2022-09-28T11:23:17.544Z,15.23
2022-09-28T11:25:55.534Z,15.37
2022-09-28T11:28:24.056Z,15.44
2022-09-28T11:30:52.594Z,15.45
2022-09-28T11:33:31.055Z,15.50
2022-09-28T11:36:29.520Z,15.49
2022-09-28T11:39:11.329Z,15.41
2022-09-28T11:41:55.500Z,15.36
2022-09-28T11:44:48.878Z,15.36
2022-09-28T11:47:32.084Z,15.38
2022-09-28T11:50:03.857Z,15.36
2022-09-28T11:52:50.531Z,15.31
2022-09-28T11:55:17.099Z,15.23
2022-09-28T11:57:46.394Z,15.19
2022-09-28T12:00:15.314Z,15.24
2022-09-28T12:03:06.350Z,15.25
2022-09-28T12:05:32.982Z,15.25
2022-09-28T12:08:09.717Z,15.25
2022-09-28T12:11:00.633Z,15.23
2022-09-28T12:13:47.973Z,15.28
2022-09-28T12:19:13.597Z,15.33
2022-09-28T12:21:43.862Z,15.46
2022-09-28T12:24:32.136Z,15.49
2022-09-28T12:26:58.504Z,15.54
2022-09-28T12:29:48.522Z,15.55
2022-09-28T12:32:26.546Z,15.52
2022-09-28T12:34:53.078Z,15.51
2022-09-28T12:37:22.467Z,15.55
2022-09-28T12:40:07.036Z,15.63
2022-09-28T12:42:46.052Z,15.71
2022-09-28T12:45:17.594Z,15.75
2022-09-28T12:48:04.257Z,15.82
2022-09-28T12:50:39.006Z,15.99
2022-09-28T12:53:06.545Z,16.15
2022-09-28T12:55:33.268Z,16.35
2022-09-28T12:58:06.431Z,16.60
2022-09-28T13:00:37.663Z,16.84
2022-09-28T13:03:19.581Z,17.06
2022-09-28T13:06:05.634Z,17.27
2022-09-28T13:08:38.012Z,17.36
2022-09-28T13:11:15.554Z,17.47
2022-09-28T13:13:48.034Z,17.49
2022-09-28T13:16:23.637Z,17.45
2022-09-28T13:18:50.052Z,17.36
2022-09-28T13:21:39.530Z,17.12
2022-09-28T13:24:28.204Z,16.94
2022-09-28T13:26:57.660Z,16.78
2022-09-28T13:29:24.367Z,16.76
2022-09-28T13:31:52.711Z,16.72
2022-09-28T13:34:22.518Z,16.68
2022-09-28T13:37:07.831Z,16.77
2022-09-28T13:39:46.232Z,16.75
2022-09-28T13:42:29.165Z,16.84
2022-09-28T13:45:14.374Z,16.68
2022-09-28T13:47:41.373Z,16.45
2022-09-28T13:50:21.212Z,16.27
2022-09-28T13:53:23.513Z,16.09
2022-09-28T13:55:50.284Z,15.95
2022-09-28T13:58:16.678Z,15.85
2022-09-28T14:00:46.114Z,15.78
2022-09-28T14:03:14.968Z,15.97
2022-09-28T14:05:41.620Z,16.08
2022-09-28T14:08:23.330Z,16.23
2022-09-28T14:10:51.725Z,16.30
2022-09-28T14:13:36.913Z,16.28
2022-09-28T14:16:20.950Z,16.38
2022-09-28T14:18:59.366Z,16.45
2022-09-28T14:21:47.259Z,16.32
2022-09-28T14:24:30.224Z,16.26
2022-09-28T14:27:10.155Z,16.10
2022-09-28T14:29:38.308Z,15.98
2022-09-28T14:32:07.760Z,16.01
2022-09-28T14:34:34.289Z,15.89
2022-09-28T14:37:20.803Z,16.01
2022-09-28T14:40:06.482Z,16.12
2022-09-28T14:42:33.048Z,16.21
2022-09-28T14:45:06.230Z,16.26
2022-09-28T14:47:52.618Z,16.13
2022-09-28T14:50:28.117Z,15.97
2022-09-28T14:52:55.681Z,15.90
2022-09-28T14:55:31.017Z,15.85
2022-09-28T14:57:58.547Z,15.82
2022-09-28T15:00:27.196Z,15.77
2022-09-28T15:02:55.121Z,15.71
2022-09-28T15:05:24.223Z,15.62
2022-09-28T15:07:52.280Z,15.54
2022-09-28T15:10:28.199Z,15.46
2022-09-28T15:12:56.035Z,15.38
2022-09-28T15:15:25.712Z,15.33
2022-09-28T15:17:57.904Z,15.30
2022-09-28T15:20:29.853Z,15.28
2022-09-28T15:22:57.337Z,15.28
2022-09-28T15:25:27.854Z,15.24
2022-09-28T15:27:58.370Z,15.23
2022-09-28T15:30:29.534Z,15.18
2022-09-28T15:32:56.974Z,15.16
2022-09-28T15:35:27.611Z,15.19
2022-09-28T15:37:54.875Z,15.17
2022-09-28T15:40:33.348Z,15.14
2022-09-28T15:42:59.802Z,15.10
2022-09-28T15:45:27.566Z,15.11
2022-09-28T15:48:15.051Z,15.11
2022-09-28T15:50:48.716Z,15.11
2022-09-28T15:53:17.909Z,15.09
2022-09-28T15:55:44.872Z,15.03
2022-09-28T15:58:19.168Z,14.96
2022-09-28T16:00:47.084Z,14.93
2022-09-28T16:03:16.491Z,14.93
2022-09-28T16:05:46.588Z,14.92
2022-09-28T16:08:26.209Z,14.90
2022-09-28T16:10:53.272Z,14.83
2022-09-28T16:13:22.279Z,14.81
2022-09-28T16:15:55.063Z,14.79
2022-09-28T16:18:23.508Z,14.86
2022-09-28T16:20:51.867Z,14.92
2022-09-28T16:23:26.781Z,14.97
2022-09-28T16:25:53.191Z,14.92
2022-09-28T16:28:35.089Z,14.86
2022-09-28T16:31:07.551Z,14.78
2022-09-28T16:33:45.131Z,14.72
2022-09-28T16:36:12.997Z,14.66
2022-09-28T16:38:39.441Z,14.59
2022-09-28T16:41:06.068Z,14.51
2022-09-28T16:43:34.944Z,14.44
2022-09-28T16:46:12.772Z,14.37
2022-09-28T16:48:57.062Z,14.31
2022-09-28T16:51:23.491Z,14.26
2022-09-28T16:54:08.538Z,14.20
2022-09-28T16:56:36.021Z,14.11
2022-09-28T16:59:02.497Z,14.05
2022-09-28T17:01:31.718Z,13.96
2022-09-28T17:03:58.248Z,13.89
2022-09-28T17:06:25.301Z,13.85
2022-09-28T17:08:51.964Z,13.78
2022-09-28T17:11:24.164Z,13.72
2022-09-28T17:13:52.052Z,13.66
2022-09-28T17:16:32.559Z,13.61
2022-09-28T17:19:18.069Z,13.56
2022-09-28T17:21:44.678Z,13.50
2022-09-28T17:24:11.253Z,13.45
2022-09-28T17:26:38.338Z,13.42
2022-09-28T17:29:08.686Z,13.35
2022-09-28T17:31:35.180Z,13.32
2022-09-28T17:34:01.747Z,13.27
2022-09-28T17:36:30.362Z,13.22
2022-09-28T17:38:57.257Z,13.19
2022-09-28T17:41:23.774Z,13.16
2022-09-28T17:43:50.199Z,13.14
2022-09-28T17:46:19.648Z,13.14
2022-09-28T17:48:47.431Z,13.12
2022-09-28T17:51:14.066Z,13.10
2022-09-28T17:53:40.627Z,13.05
2022-09-28T17:56:07.140Z,13.00
2022-09-28T17:58:33.843Z,12.95
2022-09-28T18:01:00.316Z,12.89
2022-09-28T18:03:27.042Z,12.86
2022-09-28T18:06:04.380Z,12.83
2022-09-28T18:08:34.121Z,12.82
2022-09-28T18:11:01.637Z,12.81
2022-09-28T18:13:28.240Z,12.79
2022-09-28T18:15:55.391Z,12.79
2022-09-28T18:18:22.495Z,12.75
2022-09-28T18:20:48.889Z,12.74
2022-09-28T18:23:15.303Z,12.70
2022-09-28T18:25:43.020Z,12.67
2022-09-28T18:28:09.908Z,12.64
2022-09-28T18:30:38.962Z,12.62
2022-09-28T18:33:05.606Z,12.61
2022-09-28T18:35:32.422Z,12.62
2022-09-28T18:37:58.777Z,12.59
2022-09-28T18:40:25.241Z,12.56
2022-09-28T18:42:51.666Z,12.53
2022-09-28T18:45:18.528Z,12.50
2022-09-28T18:47:45.300Z,12.46
2022-09-28T18:50:18.084Z,12.39
2022-09-28T18:52:44.972Z,12.33
2022-09-28T18:55:11.951Z,12.28
2022-09-28T18:57:40.341Z,12.21
2022-09-28T19:00:08.840Z,12.15
2022-09-28T19:02:35.864Z,12.08
2022-09-28T19:05:02.368Z,12.01
2022-09-28T19:07:28.772Z,11.95
2022-09-28T19:09:57.493Z,11.88
2022-09-28T19:12:23.947Z,11.81
2022-09-28T19:14:50.300Z,11.75
2022-09-28T19:17:18.057Z,11.70
2022-09-28T19:19:44.953Z,11.64
2022-09-28T19:22:11.969Z,11.58
2022-09-28T19:24:38.626Z,11.54
2022-09-28T19:27:05.038Z,11.50
2022-09-28T19:29:31.436Z,11.44
2022-09-28T19:31:58.113Z,11.39
2022-09-28T19:34:26.944Z,11.37
2022-09-28T19:36:53.331Z,11.37
2022-09-28T19:39:19.818Z,11.35
2022-09-28T19:41:52.947Z,11.34
2022-09-28T19:44:27.264Z,11.30
2022-09-28T19:46:54.635Z,11.26
2022-09-28T19:49:22.408Z,11.22
2022-09-28T19:54:38.014Z,11.15
2022-09-28T19:57:08.479Z,11.13
2022-09-28T19:59:36.498Z,11.11
2022-09-28T20:02:03.107Z,11.09
2022-09-28T20:04:30.008Z,11.08
2022-09-28T20:06:56.412Z,11.06
2022-09-28T20:09:22.818Z,11.05
2022-09-28T20:11:51.242Z,11.06
2022-09-28T20:14:18.608Z,11.05
2022-09-28T20:16:46.127Z,11.03
2022-09-28T20:19:12.898Z,11.03
2022-09-28T20:21:39.299Z,11.03
2022-09-28T20:24:05.843Z,11.01
2022-09-28T20:26:37.819Z,11.01
2022-09-28T20:29:04.971Z,10.98
2022-09-28T20:31:31.451Z,10.95
2022-09-28T20:33:57.915Z,10.86
2022-09-28T20:36:25.141Z,10.81
2022-09-28T20:38:52.457Z,10.79
2022-09-28T20:41:19.805Z,10.78
2022-09-28T20:43:46.733Z,10.77
2022-09-28T20:46:13.890Z,10.76
2022-09-28T20:48:40.613Z,10.75
2022-09-28T20:51:14.142Z,10.76
2022-09-28T20:53:42.922Z,10.78
2022-09-28T20:56:14.039Z,10.78
2022-09-28T20:58:40.706Z,10.78
2022-09-28T21:01:09.629Z,10.76
2022-09-28T21:03:37.048Z,10.75
2022-09-28T21:06:07.589Z,10.73
2022-09-28T21:08:36.660Z,10.74
2022-09-28T21:11:03.041Z,10.72
2022-09-28T21:13:29.579Z,10.71
2022-09-28T21:16:00.699Z,10.71
2022-09-28T21:18:27.498Z,10.75
2022-09-28T21:20:55.112Z,10.78
2022-09-28T21:23:24.713Z,10.80
2022-09-28T21:26:00.388Z,10.83
2022-09-28T21:28:26.876Z,10.87
2022-09-28T21:30:53.399Z,10.89
2022-09-28T21:33:19.824Z,10.89
2022-09-28T21:35:46.286Z,10.89
2022-09-28T21:38:12.723Z,10.87
2022-09-28T21:40:39.212Z,10.87
2022-09-28T21:43:05.637Z,10.87
2022-09-28T21:45:32.466Z,10.89
2022-09-28T21:47:59.089Z,10.90
2022-09-28T21:50:26.051Z,10.92
2022-09-28T21:52:53.481Z,10.95
2022-09-28T21:55:20.592Z,10.93
2022-09-28T21:57:47.563Z,10.89
2022-09-28T22:00:18.468Z,10.85
2022-09-28T22:02:45.405Z,10.79
2022-09-28T22:05:12.617Z,10.71
2022-09-28T22:07:39.893Z,10.64
2022-09-28T22:10:07.013Z,10.56
2022-09-28T22:12:33.397Z,10.47
2022-09-28T22:15:00.279Z,10.38
2022-09-28T22:17:26.708Z,10.30
2022-09-28T22:19:53.359Z,10.21
2022-09-28T22:22:19.827Z,10.11
2022-09-28T22:24:46.242Z,10.04
2022-09-28T22:27:12.887Z,9.96
2022-09-28T22:29:39.339Z,9.87
2022-09-28T22:32:07.441Z,9.85
2022-09-28T22:34:34.106Z,9.85
2022-09-28T22:37:03.122Z,9.86
2022-09-28T22:39:34.234Z,9.85
2022-09-28T22:42:03.177Z,9.83
2022-09-28T22:44:29.632Z,9.80
2022-09-28T22:46:56.103Z,9.76
2022-09-28T22:49:22.757Z,9.73
2022-09-28T22:51:49.290Z,9.75
2022-09-28T22:54:16.389Z,9.76
2022-09-28T22:56:43.535Z,9.78
2022-09-28T22:59:11.397Z,9.82
2022-09-28T23:01:38.098Z,9.82
2022-09-28T23:04:04.626Z,9.85
2022-09-28T23:06:31.107Z,9.87
2022-09-28T23:08:57.671Z,9.88
2022-09-28T23:11:24.147Z,9.92
2022-09-28T23:13:55.410Z,9.90
2022-09-28T23:16:24.762Z,9.90
2022-09-28T23:18:52.272Z,9.88
2022-09-28T23:21:21.328Z,9.87
2022-09-28T23:23:52.307Z,9.84
2022-09-28T23:26:19.962Z,9.80
2022-09-28T23:28:46.585Z,9.75
2022-09-28T23:31:15.363Z,9.72
2022-09-28T23:33:41.917Z,9.67
2022-09-28T23:36:08.454Z,9.60
2022-09-28T23:38:35.181Z,9.55
2022-09-28T23:41:01.709Z,9.51
2022-09-28T23:43:28.249Z,9.47
2022-09-28T23:45:54.664Z,9.43
2022-09-28T23:48:21.049Z,9.40
2022-09-28T23:50:47.595Z,9.35
2022-09-28T23:53:14.664Z,9.34
2022-09-28T23:55:44.137Z,9.30
2022-09-28T23:58:11.078Z,9.27
